createdAt,value
2017-08-20T00:00:04.868Z,18.30
2017-08-20T00:02:34.128Z,18.30
2017-08-20T00:05:02.941Z,17.90
2017-08-20T00:07:31.251Z,18.00
2017-08-20T00:09:59.500Z,18.20
2017-08-20T00:12:27.937Z,17.90
2017-08-20T00:14:56.214Z,17.90
2017-08-20T00:17:24.480Z,17.90
2017-08-20T00:19:52.952Z,18.10
2017-08-20T00:22:21.207Z,18.10
2017-08-20T00:24:49.473Z,18.40
2017-08-20T00:27:18.665Z,17.90
2017-08-20T00:29:46.917Z,17.80
2017-08-20T00:32:15.170Z,18.00
2017-08-20T00:34:43.560Z,17.90
2017-08-20T00:37:11.838Z,17.90
2017-08-20T00:39:40.136Z,18.00
2017-08-20T00:42:09.305Z,18.10
2017-08-20T00:44:37.692Z,18.10
2017-08-20T00:47:05.982Z,18.10
2017-08-20T00:49:35.245Z,18.00
2017-08-20T00:52:03.515Z,17.90
2017-08-20T00:54:31.811Z,18.00
2017-08-20T00:57:00.285Z,18.20
2017-08-20T00:59:28.551Z,18.00
2017-08-20T01:01:56.942Z,18.00
2017-08-20T01:04:25.313Z,17.90
2017-08-20T01:06:53.581Z,17.80
2017-08-20T01:09:21.859Z,18.10
2017-08-20T01:11:50.229Z,17.90
2017-08-20T01:14:18.507Z,18.00
2017-08-20T01:16:47.504Z,18.40
2017-08-20T01:19:15.903Z,18.20
2017-08-20T01:21:44.197Z,18.40
2017-08-20T01:24:12.474Z,18.30
2017-08-20T01:26:40.859Z,18.20
2017-08-20T01:29:09.107Z,18.30
2017-08-20T01:31:37.412Z,18.30
2017-08-20T01:34:05.771Z,18.10
2017-08-20T01:36:34.011Z,18.40
2017-08-20T01:39:02.282Z,18.40
2017-08-20T01:41:30.729Z,18.20
2017-08-20T01:43:59.767Z,18.10
2017-08-20T01:46:28.138Z,18.20
2017-08-20T01:49:02.602Z,17.90
2017-08-20T01:51:30.875Z,18.00
2017-08-20T01:53:59.798Z,18.30
2017-08-20T01:56:28.929Z,18.40
2017-08-20T01:58:57.180Z,18.40
2017-08-20T02:01:25.459Z,18.20
2017-08-20T02:03:53.942Z,18.30
2017-08-20T02:06:22.272Z,18.30
2017-08-20T02:08:50.564Z,18.30
2017-08-20T02:11:18.944Z,18.20
2017-08-20T02:13:47.187Z,18.10
2017-08-20T02:16:16.339Z,18.20
2017-08-20T02:18:44.813Z,18.00
2017-08-20T02:21:13.148Z,17.90
2017-08-20T02:23:41.502Z,18.00
2017-08-20T02:26:09.858Z,18.20
2017-08-20T02:28:38.094Z,18.20
2017-08-20T02:31:06.331Z,18.50
2017-08-20T02:33:35.494Z,18.40
2017-08-20T02:36:03.731Z,18.40
2017-08-20T02:38:32.442Z,18.30
2017-08-20T02:41:00.839Z,18.20
2017-08-20T02:43:29.100Z,18.10
2017-08-20T02:45:57.400Z,18.30
2017-08-20T02:48:25.779Z,18.10
2017-08-20T02:50:54.834Z,18.00
2017-08-20T02:53:23.095Z,17.80
2017-08-20T02:55:52.224Z,18.00
2017-08-20T02:58:20.465Z,18.10
2017-08-20T03:00:48.743Z,17.90
2017-08-20T03:03:17.085Z,18.00
2017-08-20T03:05:45.322Z,18.00
2017-08-20T03:08:14.585Z,17.80
2017-08-20T03:10:43.841Z,17.70
2017-08-20T03:13:12.206Z,17.70
2017-08-20T03:15:40.592Z,17.50
2017-08-20T03:18:09.115Z,17.90
2017-08-20T03:20:38.322Z,17.50
2017-08-20T03:23:07.433Z,17.80
2017-08-20T03:25:35.805Z,17.50
2017-08-20T03:28:04.129Z,17.60
2017-08-20T03:30:32.503Z,17.70
2017-08-20T03:33:00.814Z,17.40
2017-08-20T03:35:29.862Z,17.50
2017-08-20T03:37:58.346Z,17.50
2017-08-20T03:40:26.620Z,17.60
2017-08-20T03:42:54.876Z,17.80
2017-08-20T03:45:24.051Z,17.80
2017-08-20T03:47:53.065Z,17.80
2017-08-20T03:50:21.349Z,17.70
2017-08-20T03:52:49.781Z,17.60
2017-08-20T03:55:18.040Z,17.70
2017-08-20T03:57:47.158Z,17.50
2017-08-20T04:00:15.495Z,17.60
2017-08-20T04:02:43.789Z,17.60
2017-08-20T04:05:12.090Z,17.60
2017-08-20T04:07:40.652Z,17.50
2017-08-20T04:10:08.903Z,17.50
2017-08-20T04:12:37.177Z,17.60
2017-08-20T04:15:05.602Z,17.80
2017-08-20T04:17:33.890Z,17.50
2017-08-20T04:20:02.179Z,17.40
2017-08-20T04:22:31.362Z,17.60
2017-08-20T04:25:00.591Z,17.40
2017-08-20T04:27:28.908Z,17.60
2017-08-20T04:29:57.245Z,17.70
2017-08-20T04:32:25.532Z,17.70
2017-08-20T04:34:54.560Z,17.60
2017-08-20T04:37:23.129Z,17.30
2017-08-20T04:39:51.381Z,17.40
2017-08-20T04:42:19.677Z,17.60
2017-08-20T04:44:48.067Z,17.50
2017-08-20T04:47:16.346Z,17.50
2017-08-20T04:49:44.614Z,17.40
2017-08-20T04:52:13.007Z,17.30
2017-08-20T04:54:41.252Z,17.60
2017-08-20T04:57:09.499Z,17.50
2017-08-20T04:59:38.955Z,17.40
2017-08-20T05:02:07.218Z,17.20
2017-08-20T05:04:35.463Z,17.30
2017-08-20T05:07:04.698Z,17.20
2017-08-20T05:09:33.059Z,17.20
2017-08-20T05:12:01.337Z,17.60
2017-08-20T05:14:29.879Z,17.40
2017-08-20T05:16:58.168Z,17.50
2017-08-20T05:19:26.433Z,17.30
2017-08-20T05:21:55.676Z,17.30
2017-08-20T05:24:24.091Z,17.30
2017-08-20T05:26:52.366Z,17.50
2017-08-20T05:29:21.524Z,17.50
2017-08-20T05:31:49.916Z,17.50
2017-08-20T05:34:19.174Z,17.60
2017-08-20T05:36:48.336Z,17.80
2017-08-20T05:39:17.654Z,17.50
2017-08-20T05:41:45.951Z,17.70
2017-08-20T05:44:14.469Z,17.30
2017-08-20T05:46:42.816Z,17.40
2017-08-20T05:49:11.130Z,17.50
2017-08-20T05:51:39.471Z,17.20
2017-08-20T05:54:08.488Z,17.50
2017-08-20T05:56:36.814Z,17.50
2017-08-20T05:59:06.045Z,17.50
2017-08-20T06:01:34.385Z,17.60
2017-08-20T06:04:03.441Z,17.40
2017-08-20T06:06:31.842Z,17.60
2017-08-20T06:09:00.278Z,17.70
2017-08-20T06:11:28.836Z,17.80
2017-08-20T06:13:57.220Z,17.60
2017-08-20T06:16:26.265Z,17.90
2017-08-20T06:18:54.551Z,17.80
2017-08-20T06:21:22.928Z,17.80
2017-08-20T06:23:51.290Z,17.70
2017-08-20T06:26:19.607Z,17.70
2017-08-20T06:28:48.841Z,17.80
2017-08-20T06:31:17.146Z,17.80
2017-08-20T06:33:45.453Z,17.80
2017-08-20T06:36:17.848Z,17.80
2017-08-20T06:38:46.127Z,18.00
2017-08-20T06:41:15.240Z,17.80
2017-08-20T06:43:43.577Z,18.00
2017-08-20T06:46:12.751Z,17.80
2017-08-20T06:48:41.111Z,18.10
2017-08-20T06:51:09.552Z,18.00
2017-08-20T06:53:37.865Z,18.10
2017-08-20T06:56:06.206Z,17.90
2017-08-20T06:58:34.610Z,18.20
2017-08-20T07:01:03.634Z,18.30
2017-08-20T07:03:31.960Z,17.80
2017-08-20T07:06:01.166Z,18.20
2017-08-20T07:08:29.514Z,18.30
2017-08-20T07:10:58.836Z,18.30
2017-08-20T07:13:30.209Z,18.20
2017-08-20T07:15:58.538Z,18.20
2017-08-20T07:18:26.833Z,18.10
2017-08-20T07:20:56.020Z,18.00
2017-08-20T07:23:24.287Z,18.00
2017-08-20T07:25:52.603Z,18.00
2017-08-20T07:28:20.902Z,18.10
2017-08-20T07:30:49.223Z,17.90
2017-08-20T07:33:17.584Z,18.20
2017-08-20T07:35:45.952Z,18.40
2017-08-20T07:38:14.198Z,18.00
2017-08-20T07:40:42.510Z,18.00
2017-08-20T07:43:23.882Z,18.30
2017-08-20T07:45:52.260Z,17.90
2017-08-20T07:48:20.616Z,18.30
2017-08-20T07:50:48.959Z,18.00
2017-08-20T07:53:17.298Z,18.30
2017-08-20T07:55:45.575Z,18.00
2017-08-20T07:58:13.851Z,18.40
2017-08-20T08:00:42.240Z,18.50
2017-08-20T08:03:10.598Z,18.50
2017-08-20T08:05:38.891Z,18.30
2017-08-20T08:08:07.217Z,18.50
2017-08-20T08:10:36.311Z,18.70
2017-08-20T08:13:04.718Z,18.90
2017-08-20T08:15:33.008Z,18.70
2017-08-20T08:18:01.339Z,18.90
2017-08-20T08:20:29.661Z,18.70
2017-08-20T08:22:58.798Z,18.90
2017-08-20T08:25:27.250Z,18.80
2017-08-20T08:27:55.811Z,19.00
2017-08-20T08:30:24.226Z,19.20
2017-08-20T08:32:52.505Z,18.80
2017-08-20T08:35:20.994Z,18.90
2017-08-20T08:37:49.272Z,18.90
2017-08-20T08:40:17.567Z,19.00
2017-08-20T08:42:46.757Z,19.10
2017-08-20T08:45:15.069Z,19.30
2017-08-20T08:47:44.198Z,19.30
2017-08-20T08:50:12.445Z,19.20
2017-08-20T08:52:40.810Z,19.20
2017-08-20T08:55:09.231Z,19.10
2017-08-20T08:57:37.719Z,19.40
2017-08-20T09:00:06.128Z,19.40
2017-08-20T09:02:34.400Z,19.40
2017-08-20T09:05:02.703Z,19.50
2017-08-20T09:07:31.760Z,19.60
2017-08-20T09:10:00.039Z,19.10
2017-08-20T09:12:28.319Z,19.50
2017-08-20T09:14:56.606Z,19.70
2017-08-20T09:17:24.880Z,19.80
2017-08-20T09:19:53.195Z,19.80
2017-08-20T09:22:21.477Z,19.80
2017-08-20T09:24:50.553Z,19.80
2017-08-20T09:27:18.809Z,19.60
2017-08-20T09:29:47.072Z,19.80
2017-08-20T09:32:15.553Z,19.80
2017-08-20T09:34:44.713Z,20.10
2017-08-20T09:37:13.040Z,19.80
2017-08-20T09:39:42.110Z,19.70
2017-08-20T09:42:10.374Z,19.80
2017-08-20T09:44:38.674Z,19.90
2017-08-20T09:47:06.990Z,19.90
2017-08-20T09:49:36.035Z,19.80
2017-08-20T09:52:04.395Z,20.10
2017-08-20T09:54:32.689Z,20.00
2017-08-20T09:57:01.667Z,20.20
2017-08-20T09:59:29.963Z,20.50
2017-08-20T10:01:58.606Z,20.50
2017-08-20T10:04:26.898Z,20.60
2017-08-20T10:06:55.979Z,20.60
2017-08-20T10:09:24.254Z,20.60
2017-08-20T10:11:53.314Z,20.50
2017-08-20T10:14:21.581Z,20.00
2017-08-20T10:16:49.926Z,20.30
2017-08-20T10:19:18.237Z,20.10
2017-08-20T10:21:46.563Z,20.30
2017-08-20T10:24:16.497Z,20.20
2017-08-20T10:26:45.607Z,20.40
2017-08-20T10:29:13.907Z,20.30
2017-08-20T10:31:42.983Z,20.30
2017-08-20T10:34:11.250Z,20.20
2017-08-20T10:36:39.519Z,20.30
2017-08-20T10:39:07.871Z,20.40
2017-08-20T10:41:36.917Z,20.40
2017-08-20T10:44:05.177Z,20.30
2017-08-20T10:46:33.480Z,20.40
2017-08-20T10:49:01.815Z,20.60
2017-08-20T10:51:30.108Z,20.60
2017-08-20T10:53:58.546Z,20.60
2017-08-20T10:56:27.038Z,20.60
2017-08-20T10:58:56.056Z,20.80
2017-08-20T11:01:24.352Z,20.80
2017-08-20T11:03:52.675Z,20.90
2017-08-20T11:06:20.898Z,20.90
2017-08-20T11:08:49.296Z,20.70
2017-08-20T11:11:17.593Z,21.00
2017-08-20T11:13:46.767Z,20.90
2017-08-20T11:16:15.083Z,20.90
2017-08-20T11:18:44.275Z,21.00
2017-08-20T11:21:12.606Z,20.90
2017-08-20T11:23:40.890Z,21.00
2017-08-20T11:26:10.001Z,20.90
2017-08-20T11:28:38.256Z,21.20
2017-08-20T11:31:06.629Z,21.30
2017-08-20T11:33:34.899Z,21.30
2017-08-20T11:36:03.182Z,21.40
2017-08-20T11:38:32.298Z,21.40
2017-08-20T11:41:00.634Z,21.50
2017-08-20T11:43:28.953Z,21.50
2017-08-20T11:45:57.262Z,21.40
2017-08-20T11:48:25.540Z,21.40
2017-08-20T11:50:53.882Z,21.40
2017-08-20T11:53:22.179Z,21.40
2017-08-20T11:55:50.476Z,21.40
2017-08-20T11:58:19.495Z,21.50
2017-08-20T12:00:47.772Z,21.50
2017-08-20T12:03:16.065Z,21.60
2017-08-20T12:05:44.320Z,21.60
2017-08-20T12:08:12.607Z,21.60
2017-08-20T12:10:40.898Z,21.60
2017-08-20T12:13:09.184Z,21.60
2017-08-20T12:15:37.460Z,21.60
2017-08-20T12:18:05.760Z,21.60
2017-08-20T12:20:35.004Z,21.60
2017-08-20T12:23:03.315Z,21.60
2017-08-20T12:25:31.616Z,21.60
2017-08-20T12:27:59.979Z,21.60
2017-08-20T12:30:28.338Z,21.60
2017-08-20T12:32:56.629Z,21.50
2017-08-20T12:35:24.931Z,21.50
2017-08-20T12:37:54.029Z,21.30
2017-08-20T12:40:23.116Z,21.30
2017-08-20T12:42:51.489Z,21.40
2017-08-20T12:45:19.877Z,20.90
2017-08-20T12:47:48.952Z,21.00
2017-08-20T12:50:17.268Z,21.30
2017-08-20T12:52:46.357Z,21.30
2017-08-20T12:55:15.409Z,21.50
2017-08-20T12:57:43.868Z,21.20
2017-08-20T13:00:12.171Z,21.50
2017-08-20T13:02:41.296Z,21.60
2017-08-20T13:05:09.729Z,21.50
2017-08-20T13:07:38.320Z,21.50
2017-08-20T13:13:02.429Z,21.70
2017-08-20T13:15:30.849Z,21.70
2017-08-20T13:17:59.963Z,21.80
2017-08-20T13:20:28.265Z,21.80
2017-08-20T13:22:56.601Z,21.90
2017-08-20T13:25:24.897Z,22.10
2017-08-20T13:27:54.017Z,22.20
2017-08-20T13:30:22.304Z,22.20
2017-08-20T13:32:50.602Z,22.20
2017-08-20T13:35:19.706Z,22.20
2017-08-20T13:37:48.031Z,22.20
2017-08-20T13:40:16.315Z,22.20
2017-08-20T13:42:44.626Z,22.10
2017-08-20T13:45:12.909Z,22.10
2017-08-20T13:47:41.399Z,22.10
2017-08-20T13:50:09.693Z,22.00
2017-08-20T13:52:37.982Z,22.00
2017-08-20T13:55:06.308Z,21.90
2017-08-20T13:57:34.564Z,21.80
2017-08-20T14:00:02.870Z,21.80
2017-08-20T14:02:31.207Z,21.60
2017-08-20T14:04:59.504Z,21.60
2017-08-20T14:07:28.004Z,21.60
2017-08-20T14:09:56.302Z,21.70
2017-08-20T14:12:25.375Z,21.60
2017-08-20T14:14:53.719Z,21.60
2017-08-20T14:17:22.007Z,21.60
2017-08-20T14:19:50.389Z,21.70
2017-08-20T14:22:18.709Z,21.80
2017-08-20T14:24:47.798Z,21.90
2017-08-20T14:27:16.081Z,21.90
2017-08-20T14:29:44.376Z,21.90
2017-08-20T14:32:12.695Z,22.00
2017-08-20T14:34:41.002Z,22.00
2017-08-20T14:37:09.298Z,21.90
2017-08-20T14:39:38.357Z,21.90
2017-08-20T14:42:07.436Z,22.00
2017-08-20T14:44:35.774Z,21.90
2017-08-20T14:47:04.804Z,21.80
2017-08-20T14:49:33.138Z,21.90
2017-08-20T14:52:02.237Z,21.60
2017-08-20T14:54:30.522Z,21.50
2017-08-20T14:56:58.828Z,21.50
2017-08-20T14:59:27.163Z,21.50
2017-08-20T15:01:56.216Z,21.70
2017-08-20T15:04:24.634Z,21.70
2017-08-20T15:06:53.280Z,21.70
2017-08-20T15:09:21.758Z,21.80
2017-08-20T15:11:50.191Z,21.90
2017-08-20T15:14:18.484Z,21.90
2017-08-20T15:16:47.661Z,22.00
2017-08-20T15:19:15.915Z,22.00
2017-08-20T15:21:45.171Z,22.10
2017-08-20T15:24:14.187Z,22.00
2017-08-20T15:26:43.085Z,22.00
2017-08-20T15:29:11.414Z,22.00
2017-08-20T15:31:40.606Z,22.10
2017-08-20T15:34:08.910Z,22.00
2017-08-20T15:36:37.220Z,22.00
2017-08-20T15:39:05.500Z,21.60
2017-08-20T15:41:33.812Z,21.90
2017-08-20T15:44:02.075Z,22.00
2017-08-20T15:46:30.432Z,22.00
2017-08-20T15:48:58.701Z,22.10
2017-08-20T15:51:26.983Z,22.10
2017-08-20T15:53:55.256Z,22.00
2017-08-20T15:56:23.680Z,22.00
2017-08-20T15:58:53.708Z,22.10
2017-08-20T16:01:22.810Z,22.10
2017-08-20T16:03:51.166Z,22.10
2017-08-20T16:06:19.561Z,22.00
2017-08-20T16:08:47.895Z,21.90
2017-08-20T16:11:16.178Z,22.00
2017-08-20T16:13:45.243Z,22.00
2017-08-20T16:16:13.537Z,22.00
2017-08-20T16:18:41.816Z,22.00
2017-08-20T16:21:11.127Z,22.00
2017-08-20T16:23:40.558Z,22.00
2017-08-20T16:26:09.007Z,21.90
2017-08-20T16:28:37.496Z,22.00
2017-08-20T16:31:07.391Z,21.70
2017-08-20T16:33:35.919Z,22.00
2017-08-20T16:36:04.304Z,22.00
2017-08-20T16:38:32.957Z,22.00
2017-08-20T16:41:01.331Z,22.00
2017-08-20T16:43:29.774Z,22.00
2017-08-20T16:45:58.491Z,21.90
2017-08-20T16:48:26.984Z,21.90
2017-08-20T16:50:56.141Z,22.00
2017-08-20T16:53:24.446Z,21.90
2017-08-20T16:55:52.862Z,21.90
2017-08-20T16:58:22.956Z,21.90
2017-08-20T17:00:51.576Z,21.70
2017-08-20T17:03:21.058Z,22.00
2017-08-20T17:05:49.655Z,22.00
2017-08-20T17:08:17.974Z,22.00
2017-08-20T17:10:46.409Z,22.00
2017-08-20T17:13:15.304Z,22.00
2017-08-20T17:15:46.504Z,22.00
2017-08-20T17:18:14.848Z,22.00
2017-08-20T17:20:43.211Z,22.10
2017-08-20T17:23:11.525Z,22.00
2017-08-20T17:25:44.621Z,22.00
2017-08-20T17:30:47.667Z,21.80
2017-08-20T17:33:16.119Z,21.90
2017-08-20T17:35:44.609Z,21.70
2017-08-20T17:38:12.969Z,21.90
2017-08-20T17:40:41.801Z,21.90
2017-08-20T17:43:10.505Z,21.80
2017-08-20T17:45:38.825Z,21.80
2017-08-20T17:48:07.180Z,21.90
2017-08-20T17:50:35.531Z,21.80
2017-08-20T17:53:04.570Z,21.80
2017-08-20T17:55:32.844Z,21.70
2017-08-20T17:58:01.151Z,21.80
2017-08-20T18:00:29.459Z,21.80
2017-08-20T18:02:58.133Z,21.90
2017-08-20T18:05:27.235Z,21.70
2017-08-20T18:07:56.347Z,21.70
2017-08-20T18:10:25.520Z,21.70
2017-08-20T18:12:53.820Z,21.70
2017-08-20T18:15:22.863Z,21.70
2017-08-20T18:17:51.190Z,21.60
2017-08-20T18:20:19.567Z,21.40
2017-08-20T18:22:49.477Z,21.60
2017-08-20T18:25:17.981Z,21.50
2017-08-20T18:27:47.118Z,21.00
2017-08-20T18:30:15.515Z,21.50
2017-08-20T18:32:43.883Z,21.30
2017-08-20T18:35:12.221Z,21.40
2017-08-20T18:37:40.494Z,21.30
2017-08-20T18:40:08.766Z,21.30
2017-08-20T18:42:37.140Z,21.40
2017-08-20T18:45:05.439Z,21.20
2017-08-20T18:47:33.829Z,21.20
2017-08-20T18:50:02.098Z,21.20
2017-08-20T18:52:30.417Z,20.90
2017-08-20T18:54:58.736Z,21.20
2017-08-20T18:57:27.069Z,21.30
2017-08-20T18:59:55.332Z,21.20
2017-08-20T19:05:24.616Z,21.00
2017-08-20T19:07:54.956Z,21.10
2017-08-20T19:10:26.479Z,20.90
2017-08-20T19:12:55.233Z,20.90
2017-08-20T19:15:23.933Z,20.80
2017-08-20T19:17:52.297Z,20.90
2017-08-20T19:20:21.472Z,20.70
2017-08-20T19:22:49.780Z,20.70
2017-08-20T19:25:18.904Z,20.60
2017-08-20T19:27:47.229Z,20.50
2017-08-20T19:30:15.533Z,20.40
2017-08-20T19:32:50.583Z,20.70
2017-08-20T19:35:19.056Z,20.70
2017-08-20T19:37:48.171Z,20.40
2017-08-20T19:40:17.448Z,20.30
2017-08-20T19:42:45.709Z,20.40
2017-08-20T19:45:14.880Z,20.30
2017-08-20T19:47:43.215Z,20.30
2017-08-20T19:50:13.164Z,20.30
2017-08-20T19:52:41.541Z,20.20
2017-08-20T19:55:09.868Z,20.10
2017-08-20T19:57:38.185Z,19.90
2017-08-20T20:00:06.480Z,20.00
2017-08-20T20:02:35.182Z,20.00
2017-08-20T20:05:03.577Z,20.00
2017-08-20T20:07:31.924Z,20.00
2017-08-20T20:10:00.302Z,19.90
2017-08-20T20:12:28.606Z,19.90
2017-08-20T20:14:56.945Z,19.90
2017-08-20T20:17:25.383Z,20.10
2017-08-20T20:19:53.972Z,20.10
2017-08-20T20:22:22.325Z,19.90
2017-08-20T20:24:51.627Z,20.00
2017-08-20T20:27:20.226Z,19.90
2017-08-20T20:29:48.576Z,20.10
2017-08-20T20:32:16.903Z,19.90
2017-08-20T20:34:45.267Z,20.00
2017-08-20T20:37:13.785Z,20.10
2017-08-20T20:39:42.078Z,20.00
2017-08-20T20:42:10.373Z,20.00
2017-08-20T20:44:38.752Z,20.00
2017-08-20T20:47:07.055Z,19.90
2017-08-20T20:49:35.532Z,20.00
2017-08-20T20:52:04.618Z,20.00
2017-08-20T20:54:32.992Z,19.80
2017-08-20T20:57:01.304Z,20.10
2017-08-20T20:59:29.639Z,19.70
2017-08-20T21:01:58.817Z,19.80
2017-08-20T21:04:27.233Z,19.60
2017-08-20T21:06:55.593Z,19.80
2017-08-20T21:09:23.914Z,19.20
2017-08-20T21:11:53.147Z,19.20
2017-08-20T21:14:22.355Z,19.30
2017-08-20T21:16:51.435Z,18.90
2017-08-20T21:19:19.777Z,18.90
2017-08-20T21:21:48.080Z,19.00
2017-08-20T21:24:16.380Z,18.80
2017-08-20T21:26:45.495Z,18.80
2017-08-20T21:29:13.818Z,18.80
2017-08-20T21:31:42.367Z,18.80
2017-08-20T21:34:10.655Z,18.70
2017-08-20T21:36:39.161Z,18.60
2017-08-20T21:39:07.637Z,18.50
2017-08-20T21:41:35.961Z,18.60
2017-08-20T21:44:04.263Z,18.70
2017-08-20T21:46:32.555Z,18.70
2017-08-20T21:49:00.861Z,18.70
2017-08-20T21:51:29.950Z,18.90
2017-08-20T21:53:58.385Z,18.90
2017-08-20T21:56:27.578Z,18.40
2017-08-20T21:58:56.627Z,18.40
2017-08-20T22:01:24.958Z,18.70
2017-08-20T22:03:54.165Z,18.50
2017-08-20T22:06:22.436Z,18.30
2017-08-20T22:08:50.759Z,18.40
2017-08-20T22:11:20.003Z,18.20
2017-08-20T22:13:48.357Z,18.40
2017-08-20T22:16:16.694Z,18.30
2017-08-20T22:18:44.965Z,18.20
2017-08-20T22:21:13.289Z,18.30
2017-08-20T22:23:42.396Z,18.20
2017-08-20T22:26:10.764Z,18.20
2017-08-20T22:28:39.893Z,18.50
2017-08-20T22:31:08.184Z,18.30
2017-08-20T22:33:36.528Z,18.20
2017-08-20T22:36:04.971Z,18.00
2017-08-20T22:38:33.243Z,18.20
2017-08-20T22:41:01.532Z,18.00
2017-08-20T22:43:30.003Z,17.90
2017-08-20T22:45:58.297Z,18.10
2017-08-20T22:48:26.593Z,17.80
2017-08-20T22:50:54.879Z,18.10
2017-08-20T22:53:23.151Z,17.90
2017-08-20T22:55:52.180Z,18.10
2017-08-20T22:58:20.485Z,17.90
2017-08-20T23:00:49.544Z,17.60
2017-08-20T23:03:17.916Z,17.90
2017-08-20T23:05:46.201Z,18.00
2017-08-20T23:08:14.462Z,18.00
2017-08-20T23:10:43.629Z,17.90
2017-08-20T23:13:11.906Z,17.90
2017-08-20T23:15:40.163Z,18.00
2017-08-20T23:18:08.398Z,17.90
2017-08-20T23:20:37.763Z,17.70
2017-08-20T23:23:06.813Z,17.90
2017-08-20T23:25:35.141Z,17.90
2017-08-20T23:28:03.412Z,17.70
2017-08-20T23:30:32.458Z,17.70
2017-08-20T23:33:01.807Z,17.60
2017-08-20T23:35:30.079Z,17.80
2017-08-20T23:37:58.303Z,17.60
2017-08-20T23:40:26.623Z,17.50
2017-08-20T23:42:54.908Z,17.70
2017-08-20T23:45:23.299Z,17.50
2017-08-20T23:47:51.564Z,17.80
2017-08-20T23:50:19.825Z,17.70
2017-08-20T23:52:48.132Z,17.50
2017-08-20T23:55:16.407Z,17.50
2017-08-20T23:57:45.648Z,17.60
